sensor_id;sensor_type;location;lat;lon;timestamp;pressure;altitude;pressure_sealevel;temperature;humidity
19795;BME280;10057;59.402;17.866;2023-04-25T00:01:23;100018.94;;;5.25;70.38
19795;BME280;10057;59.402;17.866;2023-04-25T00:03:50;100019.00;;;5.23;70.32
19795;BME280;10057;59.402;17.866;2023-04-25T00:06:18;100017.25;;;5.22;70.53
19795;BME280;10057;59.402;17.866;2023-04-25T00:08:44;100006.72;;;5.22;70.79
19795;BME280;10057;59.402;17.866;2023-04-25T00:11:11;100011.97;;;5.22;70.91
19795;BME280;10057;59.402;17.866;2023-04-25T00:13:38;100009.44;;;5.19;70.63
19795;BME280;10057;59.402;17.866;2023-04-25T00:16:08;100008.63;;;5.17;70.65
19795;BME280;10057;59.402;17.866;2023-04-25T00:18:35;100000.88;;;5.13;71.06
19795;BME280;10057;59.402;17.866;2023-04-25T00:21:02;100008.75;;;5.13;71.19
19795;BME280;10057;59.402;17.866;2023-04-25T00:23:29;100005.25;;;5.12;70.88
19795;BME280;10057;59.402;17.866;2023-04-25T00:25:56;100007.00;;;5.13;70.76
19795;BME280;10057;59.402;17.866;2023-04-25T00:28:22;100003.44;;;5.14;70.60
19795;BME280;10057;59.402;17.866;2023-04-25T00:30:49;100003.38;;;5.17;70.92
19795;BME280;10057;59.402;17.866;2023-04-25T00:33:16;99999.81;;;5.18;71.02
19795;BME280;10057;59.402;17.866;2023-04-25T00:35:43;99998.97;;;5.18;70.59
19795;BME280;10057;59.402;17.866;2023-04-25T00:38:10;100004.31;;;5.15;71.00
19795;BME280;10057;59.402;17.866;2023-04-25T00:40:36;99998.19;;;5.14;71.11
19795;BME280;10057;59.402;17.866;2023-04-25T00:43:04;99994.66;;;5.15;71.14
19795;BME280;10057;59.402;17.866;2023-04-25T00:45:32;99991.13;;;5.16;71.43
19795;BME280;10057;59.402;17.866;2023-04-25T00:48:04;99989.44;;;5.14;71.41
19795;BME280;10057;59.402;17.866;2023-04-25T00:50:36;99991.13;;;5.16;70.95
19795;BME280;10057;59.402;17.866;2023-04-25T00:53:03;99993.75;;;5.16;70.77
19795;BME280;10057;59.402;17.866;2023-04-25T00:55:30;99985.03;;;5.14;70.84
19795;BME280;10057;59.402;17.866;2023-04-25T00:57:58;99988.59;;;5.13;70.93
19795;BME280;10057;59.402;17.866;2023-04-25T01:00:24;99988.59;;;5.13;71.31
19795;BME280;10057;59.402;17.866;2023-04-25T01:02:51;99988.69;;;5.09;71.06
19795;BME280;10057;59.402;17.866;2023-04-25T01:05:18;99989.66;;;5.06;71.51
19795;BME280;10057;59.402;17.866;2023-04-25T01:07:45;99985.28;;;5.05;71.35
19795;BME280;10057;59.402;17.866;2023-04-25T01:10:12;99981.75;;;5.06;71.18
19795;BME280;10057;59.402;17.866;2023-04-25T01:12:39;99981.75;;;5.06;70.87
19795;BME280;10057;59.402;17.866;2023-04-25T01:15:06;99979.22;;;5.03;71.27
19795;BME280;10057;59.402;17.866;2023-04-25T01:17:34;99974.03;;;5.00;71.81
19795;BME280;10057;59.402;17.866;2023-04-25T01:20:05;99959.19;;;4.97;71.31
19795;BME280;10057;59.402;17.866;2023-04-25T01:22:34;99953.22;;;4.92;71.28
19795;BME280;10057;59.402;17.866;2023-04-25T01:25:01;99937.59;;;4.86;71.50
19795;BME280;10057;59.402;17.866;2023-04-25T01:27:28;99932.44;;;4.82;71.35
19795;BME280;10057;59.402;17.866;2023-04-25T01:29:56;99933.41;;;4.79;71.74
19795;BME280;10057;59.402;17.866;2023-04-25T01:32:23;99932.63;;;4.75;71.71
19795;BME280;10057;59.402;17.866;2023-04-25T01:34:50;99927.47;;;4.72;71.47
19795;BME280;10057;59.402;17.866;2023-04-25T01:37:17;99924.06;;;4.67;72.22
19795;BME280;10057;59.402;17.866;2023-04-25T01:39:44;99907.50;;;4.65;72.29
19795;BME280;10057;59.402;17.866;2023-04-25T01:42:13;99895.28;;;4.63;72.33
19795;BME280;10057;59.402;17.866;2023-04-25T01:44:40;99898.06;;;4.58;71.84
19795;BME280;10057;59.402;17.866;2023-04-25T01:47:06;99905.09;;;4.56;71.93
19795;BME280;10057;59.402;17.866;2023-04-25T01:49:33;99905.94;;;4.58;72.15
19795;BME280;10057;59.402;17.866;2023-04-25T01:52:00;99898.06;;;4.58;72.18
19795;BME280;10057;59.402;17.866;2023-04-25T01:54:26;99903.47;;;4.52;72.06
19795;BME280;10057;59.402;17.866;2023-04-25T01:56:56;99906.16;;;4.49;72.18
19795;BME280;10057;59.402;17.866;2023-04-25T01:59:24;99920.22;;;4.48;72.07
19795;BME280;10057;59.402;17.866;2023-04-25T02:01:51;99921.28;;;4.39;72.22
19795;BME280;10057;59.402;17.866;2023-04-25T02:04:18;99914.41;;;4.34;72.26
19795;BME280;10057;59.402;17.866;2023-04-25T02:06:46;99917.09;;;4.31;72.33
19795;BME280;10057;59.402;17.866;2023-04-25T02:09:12;99927.59;;;4.32;72.73
19795;BME280;10057;59.402;17.866;2023-04-25T02:11:39;99930.16;;;4.34;72.52
19795;BME280;10057;59.402;17.866;2023-04-25T02:14:06;99907.31;;;4.37;72.71
19795;BME280;10057;59.402;17.866;2023-04-25T02:16:33;99895.75;;;4.44;72.48
19795;BME280;10057;59.402;17.866;2023-04-25T02:18:59;99879.97;;;4.46;72.29
19795;BME280;10057;59.402;17.866;2023-04-25T02:21:26;99879.13;;;4.44;72.36
19795;BME280;10057;59.402;17.866;2023-04-25T02:23:53;99884.47;;;4.41;72.49
19795;BME280;10057;59.402;17.866;2023-04-25T02:26:20;99884.38;;;4.44;72.39
19795;BME280;10057;59.402;17.866;2023-04-25T02:28:50;99888.75;;;4.45;72.62
19795;BME280;10057;59.402;17.866;2023-04-25T02:31:18;99880.91;;;4.43;72.42
19795;BME280;10057;59.402;17.866;2023-04-25T02:33:45;99880.09;;;4.41;72.42
19795;BME280;10057;59.402;17.866;2023-04-25T02:36:11;99866.13;;;4.39;72.55
19795;BME280;10057;59.402;17.866;2023-04-25T02:38:38;99856.47;;;4.40;72.90
19795;BME280;10057;59.402;17.866;2023-04-25T02:41:10;99846.97;;;4.36;72.69
19795;BME280;10057;59.402;17.866;2023-04-25T02:43:37;99847.03;;;4.34;72.61
19795;BME280;10057;59.402;17.866;2023-04-25T02:46:04;99853.13;;;4.35;72.36
19795;BME280;10057;59.402;17.866;2023-04-25T02:48:31;99858.47;;;4.32;72.71
19795;BME280;10057;59.402;17.866;2023-04-25T02:50:57;99863.63;;;4.35;72.64
19795;BME280;10057;59.402;17.866;2023-04-25T02:53:24;99854.84;;;4.36;72.47
19795;BME280;10057;59.402;17.866;2023-04-25T02:55:51;99845.19;;;4.38;72.46
19795;BME280;10057;59.402;17.866;2023-04-25T02:58:19;99830.22;;;4.40;72.65
19795;BME280;10057;59.402;17.866;2023-04-25T03:00:46;99818.88;;;4.39;72.68
19795;BME280;10057;59.402;17.866;2023-04-25T03:03:12;99814.53;;;4.37;72.83
19795;BME280;10057;59.402;17.866;2023-04-25T03:05:39;99817.22;;;4.35;72.79
19795;BME280;10057;59.402;17.866;2023-04-25T03:08:06;99815.53;;;4.33;72.86
19795;BME280;10057;59.402;17.866;2023-04-25T03:10:33;99814.69;;;4.31;72.28
19795;BME280;10057;59.402;17.866;2023-04-25T03:13:00;99813.00;;;4.30;72.93
19795;BME280;10057;59.402;17.866;2023-04-25T03:15:26;99799.84;;;4.31;72.61
19795;BME280;10057;59.402;17.866;2023-04-25T03:17:53;99795.44;;;4.32;72.96
19795;BME280;10057;59.402;17.866;2023-04-25T03:20:20;99798.00;;;4.35;73.00
19795;BME280;10057;59.402;17.866;2023-04-25T03:22:46;99806.72;;;4.35;73.01
19795;BME280;10057;59.402;17.866;2023-04-25T03:25:13;99786.63;;;4.34;73.06
19795;BME280;10057;59.402;17.866;2023-04-25T03:27:40;99784.88;;;4.33;72.82
19795;BME280;10057;59.402;17.866;2023-04-25T03:30:07;99782.31;;;4.32;72.48
19795;BME280;10057;59.402;17.866;2023-04-25T03:32:34;99797.16;;;4.33;72.99
19795;BME280;10057;59.402;17.866;2023-04-25T03:35:01;99798.94;;;4.31;72.74
19795;BME280;10057;59.402;17.866;2023-04-25T03:37:28;99793.75;;;4.29;72.94
19795;BME280;10057;59.402;17.866;2023-04-25T03:39:55;99806.09;;;4.25;72.96
19795;BME280;10057;59.402;17.866;2023-04-25T03:42:21;99799.13;;;4.24;73.09
19795;BME280;10057;59.402;17.866;2023-04-25T03:44:50;99789.56;;;4.22;73.24
19795;BME280;10057;59.402;17.866;2023-04-25T03:47:17;99800.97;;;4.21;73.04
19795;BME280;10057;59.402;17.866;2023-04-25T03:49:44;99797.53;;;4.19;73.28
19795;BME280;10057;59.402;17.866;2023-04-25T03:52:11;99795.69;;;4.22;73.63
19795;BME280;10057;59.402;17.866;2023-04-25T03:54:37;99791.19;;;4.26;73.71
19795;BME280;10057;59.402;17.866;2023-04-25T03:57:04;99775.44;;;4.27;73.48
19795;BME280;10057;59.402;17.866;2023-04-25T03:59:31;99781.47;;;4.30;73.33
19795;BME280;10057;59.402;17.866;2023-04-25T04:01:58;99775.22;;;4.35;73.67
19795;BME280;10057;59.402;17.866;2023-04-25T04:04:24;99770.75;;;4.39;73.50
19795;BME280;10057;59.402;17.866;2023-04-25T04:06:51;99762.84;;;4.39;73.63
19795;BME280;10057;59.402;17.866;2023-04-25T04:09:18;99746.19;;;4.40;73.50
19795;BME280;10057;59.402;17.866;2023-04-25T04:11:46;99743.56;;;4.40;73.33
19795;BME280;10057;59.402;17.866;2023-04-25T04:14:13;99736.53;;;4.40;73.42
19795;BME280;10057;59.402;17.866;2023-04-25T04:16:40;99734.78;;;4.41;73.44
19795;BME280;10057;59.402;17.866;2023-04-25T04:19:06;99737.53;;;4.36;73.37
19795;BME280;10057;59.402;17.866;2023-04-25T04:21:34;99743.66;;;4.37;73.71
19795;BME280;10057;59.402;17.866;2023-04-25T04:24:00;99735.69;;;4.40;73.77
19795;BME280;10057;59.402;17.866;2023-04-25T04:26:27;99737.31;;;4.44;73.25
19795;BME280;10057;59.402;17.866;2023-04-25T04:28:54;99736.38;;;4.46;73.54
19795;BME280;10057;59.402;17.866;2023-04-25T04:31:22;99735.44;;;4.49;73.58
19795;BME280;10057;59.402;17.866;2023-04-25T04:33:49;99750.28;;;4.50;73.39
19795;BME280;10057;59.402;17.866;2023-04-25T04:36:16;99752.06;;;4.49;73.65
19795;BME280;10057;59.402;17.866;2023-04-25T04:38:46;99754.72;;;4.48;73.69
19795;BME280;10057;59.402;17.866;2023-04-25T04:41:12;99753.84;;;4.47;73.68
19795;BME280;10057;59.402;17.866;2023-04-25T04:43:39;99758.22;;;4.48;73.77
19795;BME280;10057;59.402;17.866;2023-04-25T04:46:06;99763.38;;;4.51;73.86
19795;BME280;10057;59.402;17.866;2023-04-25T04:48:33;99764.19;;;4.54;73.84
19795;BME280;10057;59.402;17.866;2023-04-25T04:51:00;99751.81;;;4.57;73.43
19795;BME280;10057;59.402;17.866;2023-04-25T04:53:27;99758.00;;;4.56;73.38
19795;BME280;10057;59.402;17.866;2023-04-25T04:55:54;99764.97;;;4.57;73.83
19795;BME280;10057;59.402;17.866;2023-04-25T04:58:21;99765.03;;;4.56;73.92
19795;BME280;10057;59.402;17.866;2023-04-25T05:00:48;99768.50;;;4.56;73.74
19795;BME280;10057;59.402;17.866;2023-04-25T05:03:15;99756.19;;;4.58;73.76
19795;BME280;10057;59.402;17.866;2023-04-25T05:05:42;99756.09;;;4.61;73.41
19795;BME280;10057;59.402;17.866;2023-04-25T05:08:09;99749.88;;;4.64;73.62
19795;BME280;10057;59.402;17.866;2023-04-25T05:10:35;99743.69;;;4.66;73.46
19795;BME280;10057;59.402;17.866;2023-04-25T05:13:02;99739.28;;;4.68;73.79
19795;BME280;10057;59.402;17.866;2023-04-25T05:15:29;99734.81;;;4.70;74.07
19795;BME280;10057;59.402;17.866;2023-04-25T05:17:56;99733.88;;;4.73;73.87
19795;BME280;10057;59.402;17.866;2023-04-25T05:20:23;99733.09;;;4.69;73.67
19795;BME280;10057;59.402;17.866;2023-04-25T05:22:49;99723.44;;;4.70;73.72
19795;BME280;10057;59.402;17.866;2023-04-25T05:25:16;99720.72;;;4.73;73.76
19795;BME280;10057;59.402;17.866;2023-04-25T05:27:43;99719.06;;;4.70;73.72
19795;BME280;10057;59.402;17.866;2023-04-25T05:30:10;99717.34;;;4.69;73.73
19795;BME280;10057;59.402;17.866;2023-04-25T05:32:37;99723.38;;;4.73;74.05
19795;BME280;10057;59.402;17.866;2023-04-25T05:35:04;99718.97;;;4.73;73.69
19795;BME280;10057;59.402;17.866;2023-04-25T05:37:33;99723.31;;;4.74;73.89
19795;BME280;10057;59.402;17.866;2023-04-25T05:40:00;99725.03;;;4.75;74.39
19795;BME280;10057;59.402;17.866;2023-04-25T05:42:27;99713.63;;;4.77;73.99
19795;BME280;10057;59.402;17.866;2023-04-25T05:44:53;99721.50;;;4.77;74.02
19795;BME280;10057;59.402;17.866;2023-04-25T05:47:20;99715.41;;;4.74;74.32
19795;BME280;10057;59.402;17.866;2023-04-25T05:49:47;99716.28;;;4.75;74.04
19795;BME280;10057;59.402;17.866;2023-04-25T05:52:13;99710.25;;;4.71;73.71
19795;BME280;10057;59.402;17.866;2023-04-25T05:54:41;99720.72;;;4.73;74.46
19795;BME280;10057;59.402;17.866;2023-04-25T05:57:08;99728.53;;;4.76;74.63
19795;BME280;10057;59.402;17.866;2023-04-25T05:59:34;99717.09;;;4.77;74.33
19795;BME280;10057;59.402;17.866;2023-04-25T06:02:02;99721.34;;;4.81;74.75
19795;BME280;10057;59.402;17.866;2023-04-25T06:04:28;99716.88;;;4.85;74.27
19795;BME280;10057;59.402;17.866;2023-04-25T06:06:56;99724.63;;;4.89;74.62
19795;BME280;10057;59.402;17.866;2023-04-25T06:09:22;99730.66;;;4.93;74.18
19795;BME280;10057;59.402;17.866;2023-04-25T06:11:49;99722.72;;;4.94;74.20
19795;BME280;10057;59.402;17.866;2023-04-25T06:14:16;99712.94;;;4.99;74.68
19795;BME280;10057;59.402;17.866;2023-04-25T06:16:42;99712.03;;;5.01;74.59
19795;BME280;10057;59.402;17.866;2023-04-25T06:19:09;99705.91;;;5.00;74.25
19795;BME280;10057;59.402;17.866;2023-04-25T06:21:36;99704.06;;;5.02;74.63
19795;BME280;10057;59.402;17.866;2023-04-25T06:24:03;99710.22;;;5.03;74.49
19795;BME280;10057;59.402;17.866;2023-04-25T06:26:30;99713.59;;;5.06;74.38
19795;BME280;10057;59.402;17.866;2023-04-25T06:28:56;99698.69;;;5.07;74.32
19795;BME280;10057;59.402;17.866;2023-04-25T06:31:23;99707.34;;;5.10;74.73
19795;BME280;10057;59.402;17.866;2023-04-25T06:33:50;99699.38;;;5.12;74.20
19795;BME280;10057;59.402;17.866;2023-04-25T06:36:17;99707.25;;;5.13;74.90
19795;BME280;10057;59.402;17.866;2023-04-25T06:38:44;99714.13;;;5.17;74.35
19795;BME280;10057;59.402;17.866;2023-04-25T06:41:10;99704.47;;;5.18;74.95
19795;BME280;10057;59.402;17.866;2023-04-25T06:43:37;99698.28;;;5.19;74.51
19795;BME280;10057;59.402;17.866;2023-04-25T06:46:04;99693.00;;;5.20;74.89
19795;BME280;10057;59.402;17.866;2023-04-25T06:48:30;99718.38;;;5.21;74.57
19795;BME280;10057;59.402;17.866;2023-04-25T06:50:57;99728.06;;;5.19;74.70
19795;BME280;10057;59.402;17.866;2023-04-25T06:53:24;99718.53;;;5.17;75.03
19795;BME280;10057;59.402;17.866;2023-04-25T06:55:51;99719.38;;;5.17;74.57
19795;BME280;10057;59.402;17.866;2023-04-25T06:58:18;99723.69;;;5.20;74.83
19795;BME280;10057;59.402;17.866;2023-04-25T07:00:45;99726.25;;;5.21;75.21
19795;BME280;10057;59.402;17.866;2023-04-25T07:03:11;99727.09;;;5.23;74.93
19795;BME280;10057;59.402;17.866;2023-04-25T07:05:38;99723.44;;;5.28;75.38
19795;BME280;10057;59.402;17.866;2023-04-25T07:08:05;99709.34;;;5.30;75.35
19795;BME280;10057;59.402;17.866;2023-04-25T07:10:32;99725.78;;;5.37;74.81
19795;BME280;10057;59.402;17.866;2023-04-25T07:12:58;99726.44;;;5.43;75.27
19795;BME280;10057;59.402;17.866;2023-04-25T07:15:25;99719.25;;;5.49;74.99
19795;BME280;10057;59.402;17.866;2023-04-25T07:17:52;99726.22;;;5.51;75.10
19795;BME280;10057;59.402;17.866;2023-04-25T07:20:19;99726.97;;;5.55;75.10
19795;BME280;10057;59.402;17.866;2023-04-25T07:22:46;99724.25;;;5.58;75.38
19795;BME280;10057;59.402;17.866;2023-04-25T07:25:13;99738.09;;;5.63;75.23
19795;BME280;10057;59.402;17.866;2023-04-25T07:27:39;99745.06;;;5.64;74.80
19795;BME280;10057;59.402;17.866;2023-04-25T07:30:07;99754.63;;;5.66;74.89
19795;BME280;10057;59.402;17.866;2023-04-25T07:32:34;99748.34;;;5.70;75.08
19795;BME280;10057;59.402;17.866;2023-04-25T07:35:01;99752.56;;;5.76;74.69
19795;BME280;10057;59.402;17.866;2023-04-25T07:37:28;99744.56;;;5.79;74.51
19795;BME280;10057;59.402;17.866;2023-04-25T07:39:55;99743.53;;;5.85;74.79
19795;BME280;10057;59.402;17.866;2023-04-25T07:42:21;99748.66;;;5.88;74.64
19795;BME280;10057;59.402;17.866;2023-04-25T07:44:48;99741.50;;;5.93;74.92
19795;BME280;10057;59.402;17.866;2023-04-25T07:47:15;99747.47;;;5.98;74.98
19795;BME280;10057;59.402;17.866;2023-04-25T07:49:42;99747.34;;;6.01;74.47
19795;BME280;10057;59.402;17.866;2023-04-25T07:52:08;99735.88;;;6.04;74.84
19795;BME280;10057;59.402;17.866;2023-04-25T07:54:35;99741.88;;;6.07;74.64
19795;BME280;10057;59.402;17.866;2023-04-25T07:57:02;99745.28;;;6.11;74.28
19795;BME280;10057;59.402;17.866;2023-04-25T07:59:29;99743.28;;;6.17;74.13
19795;BME280;10057;59.402;17.866;2023-04-25T08:01:56;99741.47;;;6.20;73.96
19795;BME280;10057;59.402;17.866;2023-04-25T08:04:24;99740.63;;;6.19;74.34
19795;BME280;10057;59.402;17.866;2023-04-25T08:06:52;99747.59;;;6.20;74.78
19795;BME280;10057;59.402;17.866;2023-04-25T08:09:20;99740.56;;;6.21;74.42
19795;BME280;10057;59.402;17.866;2023-04-25T08:11:47;99737.09;;;6.18;74.75
19795;BME280;10057;59.402;17.866;2023-04-25T08:14:14;99734.47;;;6.18;74.53
19795;BME280;10057;59.402;17.866;2023-04-25T08:16:41;99743.41;;;6.14;74.49
19795;BME280;10057;59.402;17.866;2023-04-25T08:19:09;99741.84;;;6.09;74.15
19795;BME280;10057;59.402;17.866;2023-04-25T08:21:36;99745.47;;;6.05;74.51
19795;BME280;10057;59.402;17.866;2023-04-25T08:24:03;99748.25;;;6.02;75.00
19795;BME280;10057;59.402;17.866;2023-04-25T08:26:30;99752.72;;;5.98;74.85
19795;BME280;10057;59.402;17.866;2023-04-25T08:28:57;99744.81;;;5.98;74.72
19795;BME280;10057;59.402;17.866;2023-04-25T08:31:23;99750.81;;;6.03;74.85
19795;BME280;10057;59.402;17.866;2023-04-25T08:33:50;99762.16;;;6.05;74.93
19795;BME280;10057;59.402;17.866;2023-04-25T08:36:18;99759.56;;;6.04;75.07
19795;BME280;10057;59.402;17.866;2023-04-25T08:39:04;99760.59;;;6.00;75.29
19795;BME280;10057;59.402;17.866;2023-04-25T08:41:31;99771.28;;;5.95;74.79
19795;BME280;10057;59.402;17.866;2023-04-25T08:43:59;99768.59;;;5.97;75.38
19795;BME280;10057;59.402;17.866;2023-04-25T08:46:27;99771.81;;;6.05;74.83
19795;BME280;10057;59.402;17.866;2023-04-25T08:48:56;99771.41;;;6.17;75.12
19795;BME280;10057;59.402;17.866;2023-04-25T08:51:25;99770.34;;;6.23;75.43
19795;BME280;10057;59.402;17.866;2023-04-25T08:53:55;99778.16;;;6.26;75.33
19795;BME280;10057;59.402;17.866;2023-04-25T08:56:26;99785.91;;;6.29;75.30
19795;BME280;10057;59.402;17.866;2023-04-25T08:58:55;99771.84;;;6.30;75.09
19795;BME280;10057;59.402;17.866;2023-04-25T09:01:22;99776.94;;;6.34;75.61
19795;BME280;10057;59.402;17.866;2023-04-25T09:03:48;99780.00;;;6.47;75.52
19795;BME280;10057;59.402;17.866;2023-04-25T09:06:17;99773.72;;;6.51;75.13
19795;BME280;10057;59.402;17.866;2023-04-25T09:08:44;99786.03;;;6.51;75.30
19795;BME280;10057;59.402;17.866;2023-04-25T09:11:12;99776.34;;;6.51;75.04
19795;BME280;10057;59.402;17.866;2023-04-25T09:13:39;99784.16;;;6.54;75.19
19795;BME280;10057;59.402;17.866;2023-04-25T09:16:06;99782.38;;;6.55;74.89
19795;BME280;10057;59.402;17.866;2023-04-25T09:18:34;99784.81;;;6.59;74.65
19795;BME280;10057;59.402;17.866;2023-04-25T09:21:09;99784.81;;;6.59;74.34
19795;BME280;10057;59.402;17.866;2023-04-25T09:23:44;99786.69;;;6.57;75.18
19795;BME280;10057;59.402;17.866;2023-04-25T09:26:14;99786.69;;;6.57;74.78
19795;BME280;10057;59.402;17.866;2023-04-25T09:28:43;99785.53;;;6.64;75.11
19795;BME280;10057;59.402;17.866;2023-04-25T09:31:10;99791.28;;;6.76;75.34
19795;BME280;10057;59.402;17.866;2023-04-25T09:33:40;99791.06;;;6.82;75.24
19795;BME280;10057;59.402;17.866;2023-04-25T09:36:09;99796.09;;;6.88;75.52
19795;BME280;10057;59.402;17.866;2023-04-25T09:38:45;99795.16;;;6.91;75.46
19795;BME280;10057;59.402;17.866;2023-04-25T09:41:12;99791.34;;;6.98;75.60
19795;BME280;10057;59.402;17.866;2023-04-25T09:43:39;99794.56;;;7.06;75.23
19795;BME280;10057;59.402;17.866;2023-04-25T09:46:10;99796.03;;;7.13;74.94
19795;BME280;10057;59.402;17.866;2023-04-25T09:48:37;99797.47;;;7.22;74.80
19795;BME280;10057;59.402;17.866;2023-04-25T09:51:12;99798.88;;;7.30;74.95
19795;BME280;10057;59.402;17.866;2023-04-25T09:53:44;99802.97;;;7.39;74.68
19795;BME280;10057;59.402;17.866;2023-04-25T09:56:13;99808.66;;;7.50;74.67
19795;BME280;10057;59.402;17.866;2023-04-25T09:58:40;99818.06;;;7.57;74.59
19795;BME280;10057;59.402;17.866;2023-04-25T10:01:09;99809.94;;;7.62;74.28
19795;BME280;10057;59.402;17.866;2023-04-25T10:03:38;99813.41;;;7.64;74.05
19795;BME280;10057;59.402;17.866;2023-04-25T10:06:19;99816.84;;;7.66;74.25
19795;BME280;10057;59.402;17.866;2023-04-25T10:08:50;99821.88;;;7.72;74.21
19795;BME280;10057;59.402;17.866;2023-04-25T10:11:18;99817.31;;;7.76;73.92
19795;BME280;10057;59.402;17.866;2023-04-25T10:13:45;99818.00;;;7.81;74.21
19795;BME280;10057;59.402;17.866;2023-04-25T10:16:12;99811.19;;;7.75;73.76
19795;BME280;10057;59.402;17.866;2023-04-25T10:18:40;99821.25;;;7.66;74.29
19795;BME280;10057;59.402;17.866;2023-04-25T10:21:07;99821.94;;;7.71;74.74
19795;BME280;10057;59.402;17.866;2023-04-25T10:23:34;99824.47;;;7.74;74.52
19795;BME280;10057;59.402;17.866;2023-04-25T10:26:01;99826.41;;;7.69;74.72
19795;BME280;10057;59.402;17.866;2023-04-25T10:28:28;99824.81;;;7.65;74.65
19795;BME280;10057;59.402;17.866;2023-04-25T10:31:03;99830.22;;;7.62;74.82
19795;BME280;10057;59.402;17.866;2023-04-25T10:36:12;99838.44;;;7.76;74.92
19795;BME280;10057;59.402;17.866;2023-04-25T10:38:39;99839.06;;;7.82;74.63
19795;BME280;10057;59.402;17.866;2023-04-25T10:41:08;99844.97;;;7.89;74.80
19795;BME280;10057;59.402;17.866;2023-04-25T10:43:42;99843.75;;;7.98;74.68
19795;BME280;10057;59.402;17.866;2023-04-25T10:46:22;99846.25;;;8.01;74.42
19795;BME280;10057;59.402;17.866;2023-04-25T10:48:54;99841.72;;;8.04;74.05
19795;BME280;10057;59.402;17.866;2023-04-25T10:51:22;99839.09;;;8.03;73.86
19795;BME280;10057;59.402;17.866;2023-04-25T10:56:25;99842.47;;;8.06;73.92
19795;BME280;10057;59.402;17.866;2023-04-25T10:59:14;99839.69;;;8.11;74.11
19795;BME280;10057;59.402;17.866;2023-04-25T11:01:43;99847.41;;;8.16;74.14
19795;BME280;10057;59.402;17.866;2023-04-25T11:04:32;99850.66;;;8.22;73.85
19795;BME280;10057;59.402;17.866;2023-04-25T11:09:35;99845.16;;;8.27;73.55
19795;BME280;10057;59.402;17.866;2023-04-25T11:12:02;99846.91;;;8.28;73.48
19795;BME280;10057;59.402;17.866;2023-04-25T11:14:29;99851.34;;;8.27;73.55
19795;BME280;10057;59.402;17.866;2023-04-25T11:16:59;99853.81;;;8.30;73.47
19795;BME280;10057;59.402;17.866;2023-04-25T11:19:28;99854.03;;;8.26;73.62
19795;BME280;10057;59.402;17.866;2023-04-25T11:21:57;99857.47;;;8.28;73.43
19795;BME280;10057;59.402;17.866;2023-04-25T11:26:54;99864.13;;;8.38;73.26
19795;BME280;10057;59.402;17.866;2023-04-25T11:29:28;99866.78;;;8.38;73.24
19795;BME280;10057;59.402;17.866;2023-04-25T11:31:55;99859.72;;;8.37;73.42
19795;BME280;10057;59.402;17.866;2023-04-25T11:34:25;99863.19;;;8.39;73.05
19795;BME280;10057;59.402;17.866;2023-04-25T11:36:52;99869.41;;;8.38;73.54
19795;BME280;10057;59.402;17.866;2023-04-25T11:39:20;99865.72;;;8.42;73.36
19795;BME280;10057;59.402;17.866;2023-04-25T11:41:47;99864.72;;;8.45;73.68
19795;BME280;10057;59.402;17.866;2023-04-25T11:44:17;99867.41;;;8.43;73.39
19795;BME280;10057;59.402;17.866;2023-04-25T11:46:45;99867.75;;;8.34;73.62
19795;BME280;10057;59.402;17.866;2023-04-25T11:49:13;99866.47;;;8.24;73.72
19795;BME280;10057;59.402;17.866;2023-04-25T11:51:41;99865.69;;;8.20;73.85
19795;BME280;10057;59.402;17.866;2023-04-25T11:54:10;99858.81;;;8.16;73.95
19795;BME280;10057;59.402;17.866;2023-04-25T11:56:41;99859.03;;;8.12;74.34
19795;BME280;10057;59.402;17.866;2023-04-25T11:59:08;99865.34;;;8.07;74.36
19795;BME280;10057;59.402;17.866;2023-04-25T12:01:38;99862.75;;;8.06;74.85
19795;BME280;10057;59.402;17.866;2023-04-25T12:06:43;99866.00;;;8.13;74.97
19795;BME280;10057;59.402;17.866;2023-04-25T12:09:14;99862.31;;;8.17;74.52
19795;BME280;10057;59.402;17.866;2023-04-25T12:11:43;99853.28;;;8.22;74.83
19795;BME280;10057;59.402;17.866;2023-04-25T12:14:11;99852.19;;;8.28;74.51
19795;BME280;10057;59.402;17.866;2023-04-25T12:16:46;99854.63;;;8.32;74.61
19795;BME280;10057;59.402;17.866;2023-04-25T12:19:14;99854.28;;;8.42;74.67
19795;BME280;10057;59.402;17.866;2023-04-25T12:21:41;99863.72;;;8.47;74.49
19795;BME280;10057;59.402;17.866;2023-04-25T12:24:24;99862.81;;;8.48;74.35
19795;BME280;10057;59.402;17.866;2023-04-25T12:27:04;99861.19;;;8.44;73.93
19795;BME280;10057;59.402;17.866;2023-04-25T12:29:32;99865.59;;;8.45;74.21
19795;BME280;10057;59.402;17.866;2023-04-25T12:32:14;99867.28;;;8.46;73.99
19795;BME280;10057;59.402;17.866;2023-04-25T12:34:41;99872.81;;;8.40;74.47
19795;BME280;10057;59.402;17.866;2023-04-25T12:37:09;99868.41;;;8.41;74.94
19795;BME280;10057;59.402;17.866;2023-04-25T12:39:36;99873.50;;;8.45;74.43
19795;BME280;10057;59.402;17.866;2023-04-25T12:42:03;99859.22;;;8.49;74.88
19795;BME280;10057;59.402;17.866;2023-04-25T12:44:34;99866.09;;;8.53;74.57
19795;BME280;10057;59.402;17.866;2023-04-25T12:47:01;99865.94;;;8.58;74.75
19795;BME280;10057;59.402;17.866;2023-04-25T12:49:29;99862.13;;;8.64;74.93
19795;BME280;10057;59.402;17.866;2023-04-25T12:51:56;99857.66;;;8.66;74.42
19795;BME280;10057;59.402;17.866;2023-04-25T12:54:23;99864.44;;;8.71;74.40
19795;BME280;10057;59.402;17.866;2023-04-25T12:56:51;99853.56;;;8.79;74.32
19795;BME280;10057;59.402;17.866;2023-04-25T12:59:18;99859.56;;;8.83;74.21
19795;BME280;10057;59.402;17.866;2023-04-25T13:01:45;99857.91;;;8.80;74.16
19795;BME280;10057;59.402;17.866;2023-04-25T13:04:12;99859.63;;;8.81;74.32
19795;BME280;10057;59.402;17.866;2023-04-25T13:06:39;99855.91;;;8.85;74.41
19795;BME280;10057;59.402;17.866;2023-04-25T13:09:05;99853.00;;;8.91;74.43
19795;BME280;10057;59.402;17.866;2023-04-25T13:11:33;99850.09;;;8.97;74.00
19795;BME280;10057;59.402;17.866;2023-04-25T13:14:00;99841.75;;;9.07;74.03
19795;BME280;10057;59.402;17.866;2023-04-25T13:16:27;99847.63;;;9.13;74.01